»·PEaware :: N354WG KMFR-KSLC

N354WG :: KMFR-KSLC

FLIGHT INFORMATION

Flight Status: Arrived
Operator: Privately registered:
United States
More flights under this callsign
Pilot: Alex C. (14758)
Aircraft: BOMBARDIER BD-100 CHALLENGER 300
(CL30)
More flights by this aircraft type
Origin: KMFR Rogue Valley Intl-Medford
United States
Destination: KSLC Salt Lake City Intl
United States
More flights between these airports :: More routes between these airports
Route: +BRUTE7 LANKS ACLOB LMT KS72G KU69I BVL WAATS5
File this flight plan on PilotEdge
Remarks:
Altitude:
(Current/Filed)
41,000ft
Speed:
(Current/Filed)
460kts
Departed: 11-Dec-18 08:48 PM
Arrived: 11-Dec-18 10:11 PM
Distance/Time
Traveled:
499nm/1:23
Distance/Time
To Go:
Arrived

Flight Plot

Page will automatically refresh every two minutes.

Flight plan parsing failed; only flown route is shown


Map Options




Map Legend


Flown Route
Filed Route
Departure Airport
Arrival Airport
Navaid (VOR, NDB)
Fix

Horizontal Profiles

Position Reports

Time Latitude Longitude Heading Altitude Ground
Speed
11-Dec-18 20:37 42.371893 -122.878213 24 1340ft 0kts
11-Dec-18 20:38 42.371893 -122.878213 24 1340ft 0kts
11-Dec-18 20:39 42.371893 -122.878213 24 1340ft 0kts
11-Dec-18 20:40 42.371893 -122.878213 24 1340ft 0kts
11-Dec-18 20:41 42.371893 -122.878213 24 1340ft 0kts
11-Dec-18 20:42 42.371140 -122.874490 154 1339ft 22kts
11-Dec-18 20:43 42.375741 -122.875289 338 1340ft 34kts
11-Dec-18 20:44 42.382515 -122.878820 338 1340ft 25kts
11-Dec-18 20:45 42.385757 -122.880299 59 1340ft 0kts
11-Dec-18 20:46 42.385757 -122.880299 59 1340ft 0kts
11-Dec-18 20:47 42.371685 -122.871532 158 1573ft 177kts
11-Dec-18 20:48 42.342668 -122.905392 306 5909ft 197kts
11-Dec-18 20:49 42.393436 -122.869262 82 8830ft 318kts
11-Dec-18 20:50 42.404904 -122.751119 88 12591ft 358kts
11-Dec-18 20:51 42.372610 -122.637642 117 16185ft 383kts
11-Dec-18 20:52 42.335998 -122.537187 118 19132ft 399kts
11-Dec-18 20:53 42.287928 -122.409849 119 22443ft 411kts
11-Dec-18 20:54 42.241650 -122.278658 105 25056ft 430kts
11-Dec-18 20:55 42.215549 -122.123274 102 27471ft 444kts
11-Dec-18 20:56 42.190077 -121.962068 101 29535ft 458kts
11-Dec-18 20:57 42.163821 -121.795117 101 31321ft 472kts
11-Dec-18 20:58 42.145153 -121.626006 94 33227ft 474kts
11-Dec-18 20:59 42.130686 -121.453804 93 35199ft 473kts
11-Dec-18 21:00 42.116178 -121.281868 93 36946ft 473kts
11-Dec-18 21:01 42.101251 -121.107759 93 38417ft 476kts
11-Dec-18 21:02 42.086198 -120.934814 93 39955ft 474kts
11-Dec-18 21:03 42.070841 -120.761738 94 41084ft 481kts
11-Dec-18 21:04 42.054527 -120.581411 94 41085ft 494kts
11-Dec-18 21:05 42.037984 -120.401544 94 41090ft 498kts
11-Dec-18 21:06 42.020994 -120.220107 94 41066ft 497kts
11-Dec-18 21:07 42.003840 -120.040101 95 41066ft 495kts
11-Dec-18 21:08 41.966645 -119.863514 105 41068ft 499kts
11-Dec-18 21:09 41.924623 -119.687766 105 41069ft 498kts
11-Dec-18 21:10 41.882514 -119.514548 105 41064ft 497kts
11-Dec-18 21:11 41.840615 -119.343785 106 41064ft 498kts
11-Dec-18 21:12 41.797791 -119.170609 106 41060ft 496kts
11-Dec-18 21:13 41.755090 -118.999130 106 41062ft 496kts
11-Dec-18 21:14 41.712275 -118.828515 106 41170ft 490kts
11-Dec-18 21:15 41.669550 -118.659426 106 41173ft 489kts
11-Dec-18 21:16 41.627013 -118.492264 106 41175ft 489kts
11-Dec-18 21:17 41.584503 -118.326371 106 41172ft 489kts
11-Dec-18 21:18 41.540970 -118.157707 106 41172ft 488kts
11-Dec-18 21:19 41.498597 -117.986822 99 41174ft 486kts
11-Dec-18 21:20 41.469543 -117.812312 99 41174ft 486kts
11-Dec-18 21:21 41.440913 -117.639090 99 41175ft 485kts
11-Dec-18 21:22 41.412384 -117.467609 99 41176ft 485kts
11-Dec-18 21:23 41.383583 -117.296102 99 41173ft 485kts
11-Dec-18 21:24 41.354740 -117.126022 99 41174ft 483kts
11-Dec-18 21:25 41.325671 -116.956189 99 41175ft 484kts
11-Dec-18 21:26 41.296228 -116.785793 99 41212ft 484kts
11-Dec-18 21:27 41.266515 -116.615473 99 41213ft 483kts
11-Dec-18 21:28 41.236627 -116.445710 99 41194ft 479kts
11-Dec-18 21:29 41.206852 -116.278128 100 41194ft 479kts
11-Dec-18 21:30 41.176468 -116.108696 100 41194ft 478kts
11-Dec-18 21:31 41.145901 -115.939751 100 41195ft 478kts
11-Dec-18 21:32 41.115035 -115.770680 100 41195ft 478kts
11-Dec-18 21:33 41.084353 -115.604087 100 41196ft 478kts
11-Dec-18 21:35 41.053023 -115.435485 100 41195ft 477kts
11-Dec-18 21:36 41.021870 -115.269317 100 40181ft 475kts
11-Dec-18 21:37 40.990546 -115.103683 100 38902ft 471kts
11-Dec-18 21:38 40.961655 -114.952143 100 37998ft 453kts
11-Dec-18 21:39 40.931165 -114.793399 99 36353ft 454kts
11-Dec-18 21:40 40.900281 -114.633913 99 34500ft 460kts
11-Dec-18 21:41 40.869221 -114.474856 99 32543ft 464kts
11-Dec-18 21:42 40.837320 -114.312762 99 30223ft 470kts
11-Dec-18 21:43 40.806355 -114.156600 99 28946ft 434kts
11-Dec-18 21:44 40.777380 -114.011384 100 27333ft 426kts
11-Dec-18 21:45 40.747895 -113.864829 101 25708ft 416kts
11-Dec-18 21:46 40.727702 -113.721491 87 24186ft 397kts
11-Dec-18 21:47 40.726382 -113.579836 87 22488ft 389kts
11-Dec-18 21:48 40.725785 -113.441578 87 20759ft 382kts
11-Dec-18 21:49 40.725271 -113.307780 89 19069ft 376kts
11-Dec-18 21:50 40.724655 -113.177467 89 17779ft 368kts
11-Dec-18 21:51 40.723907 -113.045522 89 17072ft 364kts
11-Dec-18 21:52 40.704659 -112.932120 83 16996ft 363kts
11-Dec-18 21:53 40.712183 -112.804083 85 16595ft 359kts
11-Dec-18 21:54 40.716198 -112.676398 86 15147ft 352kts
11-Dec-18 21:54 40.718565 -112.573026 86 14018ft 347kts
11-Dec-18 21:56 40.736362 -112.432258 76 12989ft 337kts
11-Dec-18 21:56 40.752025 -112.335945 76 11995ft 333kts
11-Dec-18 21:57 40.764119 -112.222768 88 11992ft 337kts
11-Dec-18 21:59 40.728280 -112.112118 142 11984ft 331kts
11-Dec-18 21:59 40.663556 -112.088858 173 12000ft 323kts
11-Dec-18 22:00 40.591235 -112.069939 171 11893ft 268kts
11-Dec-18 22:01 40.529358 -112.053044 171 11308ft 240kts
11-Dec-18 22:02 40.494939 -112.005922 81 10217ft 240kts
11-Dec-18 22:03 40.504197 -111.937019 58 9143ft 235kts
11-Dec-18 22:04 40.553606 -111.930850 346 8624ft 220kts
11-Dec-18 22:05 40.607311 -111.942110 350 7580ft 219kts
11-Dec-18 22:06 40.661667 -111.949821 353 6486ft 201kts
11-Dec-18 22:07 40.708800 -111.955458 354 5547ft 149kts
11-Dec-18 22:08 40.745129 -111.959655 355 4835ft 131kts
11-Dec-18 22:09 40.779090 -111.962134 0 4234ft 108kts
11-Dec-18 22:10 40.791478 -111.960946 93 4234ft 15kts
11-Dec-18 22:11 40.787741 -111.958163 180 4234ft 0kts
11-Dec-18 22:12 40.787741 -111.958163 180 4234ft 0kts

Navigation Log

Ident Type
Flight plan parsing failed, navigation log unavailable